HomeShort term forecast

Short term forecast

Graphical weather forecast for the next 48 hours for Montreal:
Short term forecast
This weather forecast is automatically refreshed every 3 hours.

Hourly Experimental Forecast for the next 48 hours ®

Overall summary: Partly cloudy later this evening.

 Date & Hour   Temp   Feel   Baro   Hum   Speed & Bearing   Wind Gust   Precip.%   Precip.   Visibility   Cloud cover   Conditions 
 18/08/2018 - 19:00  24.9°C  24.9°C  1013.2 hPa  54%  7.7 km/h   18.7 km/h  0%  --  16.1km  28%  Partly Cloudy 
 18/08/2018 - 20:00  23.8°C  23.8°C  1013.5 hPa  59%  5.9 km/h   13.1 km/h  2%  0.06 mm/h  16.1km  11%  Clear 
 18/08/2018 - 21:00  23.0°C  23.0°C  1013.9 hPa  62%  6.4 km/h   11.1 km/h  0%  --  16.1km  4%  Clear 
 18/08/2018 - 22:00  22.1°C  22.1°C  1014.4 hPa  65%  7.7 km/h   13.2 km/h  0%  --  16.1km  9%  Clear 
 18/08/2018 - 23:00  21.4°C  21.4°C  1014.7 hPa  68%  8.4 km/h   15.1 km/h  0%  --  16.1km  13%  Clear 
 19/08/2018 - 00:00  20.6°C  20.6°C  1014.9 hPa  70%  8.8 km/h   16.4 km/h  0%  --  16.1km  12%  Clear 
 19/08/2018 - 01:00  20.0°C  20.0°C  1015.1 hPa  70%  8.7 km/h   15.4 km/h  0%  --  16.1km  5%  Clear 
 19/08/2018 - 02:00  19.4°C  19.4°C  1015.2 hPa  71%  9.4 km/h   16.0 km/h  1%  0.01 mm/h  16.1km  1%  Clear 
 19/08/2018 - 03:00  18.7°C  18.7°C  1015.4 hPa  72%  9.6 km/h   17.4 km/h  0%  --  16.1km  0%  Clear 
 19/08/2018 - 04:00  17.9°C  17.9°C  1015.8 hPa  75%  9.4 km/h   17.8 km/h  2%  0.01 mm/h  16.1km  0%  Clear 
 19/08/2018 - 05:00  17.1°C  17.1°C  1016.1 hPa  77%  9.4 km/h   18.3 km/h  2%  0.01 mm/h  16.1km  0%  Clear 
 19/08/2018 - 06:00  16.8°C  16.8°C  1016.5 hPa  78%  9.8 km/h   18.8 km/h  0%  --  16.1km  7%  Clear 
 19/08/2018 - 07:00  17.1°C  17.1°C  1017.1 hPa  77%  9.9 km/h   18.8 km/h  0%  --  16.1km  1%  Clear 
 19/08/2018 - 08:00  18.2°C  18.2°C  1017.8 hPa  73%  11.4 km/h   17.1 km/h  0%  --  16.1km  3%  Clear 
 19/08/2018 - 09:00  19.8°C  19.8°C  1018.2 hPa  69%  11.3 km/h   16.4 km/h  0%  --  16.1km  3%  Clear 
 19/08/2018 - 10:00  21.6°C  21.6°C  1018.4 hPa  64%  10.5 km/h   16.2 km/h  0%  --  16.1km  0%  Clear 
 19/08/2018 - 11:00  23.1°C  23.1°C  1018.3 hPa  60%  9.9 km/h   15.9 km/h  0%  --  16.1km  0%  Clear 
 19/08/2018 - 12:00  24.2°C  24.2°C  1018.1 hPa  55%  9.8 km/h   15.5 km/h  0%  --  16.1km  0%  Clear 
 19/08/2018 - 13:00  25.2°C  25.2°C  1017.7 hPa  51%  10.1 km/h   15.1 km/h  0%  --  16.1km  14%  Clear 
 19/08/2018 - 14:00  26.3°C  26.3°C  1017.5 hPa  46%  10.2 km/h   14.6 km/h  0%  --  16.1km  14%  Clear 
 19/08/2018 - 15:00  27.1°C  27.1°C  1017.2 hPa  43%  10.1 km/h   13.4 km/h  0%  --  16.1km  21%  Clear 
 19/08/2018 - 16:00  27.7°C  27.7°C  1016.9 hPa  42%  10.2 km/h   12.1 km/h  0%  --  16.1km  19%  Clear 
 19/08/2018 - 17:00  27.6°C  27.6°C  1016.9 hPa  42%  10.3 km/h   11.5 km/h  0%  --  16.1km  25%  Partly Cloudy 
 19/08/2018 - 18:00  26.8°C  27.0°C  1017.1 hPa  45%  9.6 km/h   12.5 km/h  0%  --  16.1km  7%  Clear 
 19/08/2018 - 19:00  25.7°C  25.7°C  1017.5 hPa  49%  8.1 km/h   14.2 km/h  0%  --  16.1km  2%  Clear 
 19/08/2018 - 20:00  24.4°C  24.4°C  1017.8 hPa  54%  6.8 km/h   14.9 km/h  0%  --  16.1km  2%  Clear 
 19/08/2018 - 21:00  23.3°C  23.3°C  1018.3 hPa  57%  6.5 km/h   13.5 km/h  0%  --  16.1km  3%  Clear 
 19/08/2018 - 22:00  22.5°C  22.5°C  1018.7 hPa  60%  6.6 km/h   11.1 km/h  0%  --  16.1km  5%  Clear 
 19/08/2018 - 23:00  21.7°C  21.7°C  1019.0 hPa  62%  6.5 km/h   9.1 km/h  0%  --  16.1km  6%  Clear 
 20/08/2018 - 00:00  20.9°C  20.9°C  1019.2 hPa  64%  6.2 km/h   7.9 km/h  0%  --  16.1km  5%  Clear 
 20/08/2018 - 01:00  20.2°C  20.2°C  1019.4 hPa  67%  5.7 km/h   6.9 km/h  0%  --  16.1km  4%  Clear 
 20/08/2018 - 02:00  19.5°C  19.5°C  1019.5 hPa  69%  5.4 km/h   6.3 km/h  0%  --  16.1km  3%  Clear 
 20/08/2018 - 03:00  18.6°C  18.6°C  1019.7 hPa  71%  5.2 km/h   6.1 km/h  0%  --  16.1km  6%  Clear 
 20/08/2018 - 04:00  17.7°C  17.7°C  1019.9 hPa  73%  5.0 km/h   6.2 km/h  1%  0.01 mm/h  16.1km  9%  Clear 
 20/08/2018 - 05:00  17.0°C  17.0°C  1020.1 hPa  76%  4.8 km/h   6.1 km/h  2%  0.01 mm/h  16.1km  13%  Clear 
 20/08/2018 - 06:00  17.0°C  17.0°C  1020.6 hPa  77%  4.5 km/h   5.5 km/h  2%  0.01 mm/h  16.1km  21%  Clear 
 20/08/2018 - 07:00  17.6°C  17.6°C  1021.0 hPa  76%  4.1 km/h   4.7 km/h  0%  --  16.1km  27%  Partly Cloudy 
 20/08/2018 - 08:00  19.0°C  19.0°C  1021.3 hPa  72%  3.9 km/h   4.3 km/h  0%  --  16.1km  22%  Clear 
 20/08/2018 - 09:00  20.8°C  20.8°C  1021.6 hPa  67%  3.9 km/h   4.8 km/h  0%  --  16.1km  16%  Clear 
 20/08/2018 - 10:00  22.8°C  22.8°C  1021.7 hPa  62%  3.6 km/h   5.8 km/h  0%  --  16.1km  17%  Clear 
 20/08/2018 - 11:00  24.3°C  24.3°C  1021.6 hPa  59%  3.5 km/h   6.6 km/h  0%  --  16.1km  5%  Clear 
 20/08/2018 - 12:00  25.3°C  25.3°C  1021.3 hPa  56%  3.2 km/h   6.9 km/h  0%  --  16.1km  9%  Clear 
 20/08/2018 - 13:00  26.1°C  26.1°C  1020.9 hPa  53%  4.4 km/h   7.0 km/h  0%  --  16.1km  18%  Clear 
 20/08/2018 - 14:00  27.1°C  27.5°C  1020.5 hPa  50%  5.6 km/h   7.2 km/h  0%  --  16.1km  1%  Clear 
 20/08/2018 - 15:00  27.9°C  28.1°C  1019.9 hPa  47%  6.2 km/h   7.4 km/h  0%  --  16.1km  7%  Clear 
 20/08/2018 - 16:00  28.3°C  28.4°C  1019.4 hPa  45%  7.0 km/h   7.6 km/h  0%  --  16.1km  14%  Clear 
 20/08/2018 - 17:00  28.2°C  28.2°C  1019.1 hPa  45%  7.0 km/h   8.1 km/h  0%  --  16.1km  21%  Clear 
 20/08/2018 - 18:00  27.5°C  27.7°C  1019.0 hPa  47%  6.3 km/h   9.3 km/h  0%  --  16.1km  19%  Clear 
Test

 

Past weather and reports

Past weatherFind in this section the past weather conditions, weather archive, graphics, reports and statistics.

Current conditions

Current weather condition for MontrealAll you need to know about the current weather conditions for Montreal. Weather data is updated every 10 minutes.

Weather forecast

Current Montreal weatherSince 2004, celinium.com website has provided accurate weather forecast for Montreal's island.